createdAt,value
2023-01-09T00:00:53.479Z,96999.00
2023-01-09T00:03:19.970Z,96999.00
2023-01-09T00:05:46.473Z,96994.69
2023-01-09T00:08:12.936Z,96998.13
2023-01-09T00:10:39.742Z,96989.91
2023-01-09T00:13:06.378Z,96995.28
2023-01-09T00:15:32.950Z,97008.88
2023-01-09T00:18:02.242Z,96999.59
2023-01-09T00:20:30.996Z,96987.72
2023-01-09T00:22:57.549Z,97000.22
2023-01-09T00:25:24.137Z,96997.50
2023-01-09T00:27:50.623Z,97017.16
2023-01-09T00:30:17.237Z,96994.88
2023-01-09T00:32:43.687Z,97022.56
2023-01-09T00:35:15.087Z,97027.53
2023-01-09T00:37:41.604Z,97029.03
2023-01-09T00:40:08.659Z,97032.09
2023-01-09T00:42:36.543Z,97008.66
2023-01-09T00:45:08.381Z,97032.22
2023-01-09T00:47:45.740Z,97018.53
2023-01-09T00:50:16.842Z,97030.41
2023-01-09T00:52:45.678Z,97029.13
2023-01-09T00:55:13.837Z,97041.13
2023-01-09T00:57:40.569Z,97014.25
2023-01-09T01:00:08.873Z,97018.84
2023-01-09T01:02:35.419Z,97017.03
2023-01-09T01:05:24.120Z,97011.34
2023-01-09T01:07:50.740Z,97034.75
2023-01-09T01:10:20.490Z,97031.69
2023-01-09T01:12:48.743Z,97037.47
2023-01-09T01:15:16.713Z,97028.75
2023-01-09T01:17:43.691Z,97031.72
2023-01-09T01:20:14.148Z,97041.09
2023-01-09T01:22:43.917Z,97028.13
2023-01-09T01:25:12.799Z,97041.28
2023-01-09T01:27:39.790Z,97044.25
2023-01-09T01:30:08.454Z,97041.78
2023-01-09T01:32:35.027Z,97014.47
2023-01-09T01:35:01.576Z,97039.16
2023-01-09T01:37:28.069Z,97046.06
2023-01-09T01:39:54.565Z,97047.03
2023-01-09T01:42:21.122Z,97038.50
2023-01-09T01:45:09.397Z,97068.28
2023-01-09T01:47:47.911Z,97069.59
2023-01-09T01:50:23.315Z,97078.28
2023-01-09T01:53:00.464Z,97071.03
2023-01-09T01:55:27.106Z,97070.88
2023-01-09T01:57:59.668Z,97085.38
2023-01-09T02:00:33.743Z,97092.94
2023-01-09T02:03:02.144Z,97095.56
2023-01-09T02:05:29.455Z,97099.66
2023-01-09T02:07:55.877Z,97092.25
2023-01-09T02:10:23.713Z,97112.16
2023-01-09T02:12:50.743Z,97112.81
2023-01-09T02:15:19.559Z,97126.78
2023-01-09T02:18:07.694Z,97097.03
2023-01-09T02:20:37.152Z,97130.44
2023-01-09T02:23:03.501Z,97137.81
2023-01-09T02:25:51.017Z,97130.91
2023-01-09T02:28:54.521Z,97112.66
2023-01-09T02:31:35.474Z,97128.78
2023-01-09T02:34:15.164Z,97111.50
2023-01-09T02:36:59.321Z,97128.72
2023-01-09T02:39:51.663Z,97145.69
2023-01-09T02:42:22.289Z,97153.88
2023-01-09T02:44:48.773Z,97145.28
2023-01-09T02:47:15.205Z,97156.13
2023-01-09T02:49:51.615Z,97165.88
2023-01-09T02:52:50.922Z,97153.91
2023-01-09T02:55:24.443Z,97170.88
2023-01-09T02:58:12.404Z,97171.84
2023-01-09T03:01:11.225Z,97168.25
2023-01-09T03:03:50.006Z,97160.19
2023-01-09T03:06:42.098Z,97173.53
2023-01-09T03:09:15.156Z,97172.19
2023-01-09T03:11:50.260Z,97173.97
2023-01-09T03:14:21.524Z,97179.00
2023-01-09T03:16:52.913Z,97186.66
2023-01-09T03:19:23.873Z,97189.59
2023-01-09T03:21:51.268Z,97168.34
2023-01-09T03:24:20.229Z,97174.44
2023-01-09T03:26:47.000Z,97172.13
2023-01-09T03:29:13.498Z,97174.25
2023-01-09T03:31:42.779Z,97145.94
2023-01-09T03:34:09.297Z,97178.38
2023-01-09T03:36:35.847Z,97162.16
2023-01-09T03:39:02.333Z,97141.44
2023-01-09T03:41:28.820Z,97139.59
2023-01-09T03:43:55.304Z,97149.03
2023-01-09T03:46:21.886Z,97148.31
2023-01-09T03:48:48.390Z,97154.28
2023-01-09T03:51:14.844Z,97146.06
2023-01-09T03:53:44.365Z,97172.78
2023-01-09T03:56:12.401Z,97144.34
2023-01-09T03:58:38.898Z,97132.25
2023-01-09T04:01:09.475Z,97160.09
2023-01-09T04:03:36.365Z,97144.47
2023-01-09T04:06:02.997Z,97157.47
2023-01-09T04:08:30.630Z,97151.25
2023-01-09T04:10:57.278Z,97117.06
2023-01-09T04:13:23.751Z,97142.25
2023-01-09T04:15:50.253Z,97158.16
2023-01-09T04:18:16.890Z,97171.91
2023-01-09T04:20:46.605Z,97165.00
2023-01-09T04:23:13.063Z,97143.78
2023-01-09T04:25:39.519Z,97128.28
2023-01-09T04:28:06.691Z,97153.91
2023-01-09T04:30:33.238Z,97153.97
2023-01-09T04:32:59.675Z,97154.59
2023-01-09T04:35:26.153Z,97168.59
2023-01-09T04:37:52.669Z,97156.44
2023-01-09T04:40:19.487Z,97144.88
2023-01-09T04:42:46.172Z,97166.28
2023-01-09T04:45:15.366Z,97167.38
2023-01-09T04:47:41.823Z,97132.16
2023-01-09T04:50:09.525Z,97146.50
2023-01-09T04:52:38.230Z,97165.63
2023-01-09T04:55:06.213Z,97145.03
2023-01-09T04:57:32.691Z,97138.25
2023-01-09T04:59:59.162Z,97169.22
2023-01-09T05:02:25.664Z,97166.06
2023-01-09T05:04:52.124Z,97171.50
2023-01-09T05:07:18.676Z,97166.03
2023-01-09T05:09:48.085Z,97162.41
2023-01-09T05:12:14.651Z,97186.56
2023-01-09T05:14:41.085Z,97173.59
2023-01-09T05:17:07.576Z,97178.22
2023-01-09T05:19:34.588Z,97156.03
2023-01-09T05:22:01.113Z,97157.66
2023-01-09T05:24:27.548Z,97160.09
2023-01-09T05:26:54.085Z,97179.25
2023-01-09T05:29:20.678Z,97170.38
2023-01-09T05:31:50.251Z,97150.97
2023-01-09T05:34:20.324Z,97179.59
2023-01-09T05:36:49.666Z,97184.22
2023-01-09T05:39:18.282Z,97194.72
2023-01-09T05:41:44.763Z,97195.88
2023-01-09T05:44:11.221Z,97184.88
2023-01-09T05:46:37.730Z,97207.13
2023-01-09T05:49:04.312Z,97190.81
2023-01-09T05:51:31.885Z,97195.41
2023-01-09T05:53:59.418Z,97202.22
2023-01-09T05:56:25.929Z,97170.56
2023-01-09T05:58:52.370Z,97189.00
2023-01-09T06:01:18.964Z,97221.50
2023-01-09T06:03:45.459Z,97214.91
2023-01-09T06:06:11.907Z,97215.91
2023-01-09T06:08:38.335Z,97216.41
2023-01-09T06:11:05.002Z,97213.91
2023-01-09T06:13:31.415Z,97213.72
2023-01-09T06:15:57.942Z,97225.25
2023-01-09T06:18:24.409Z,97227.19
2023-01-09T06:20:50.952Z,97239.69
2023-01-09T06:23:17.384Z,97251.22
2023-01-09T06:25:43.850Z,97234.38
2023-01-09T06:28:10.347Z,97248.75
2023-01-09T06:30:36.837Z,97251.84
2023-01-09T06:33:03.373Z,97263.09
2023-01-09T06:35:29.849Z,97230.84
2023-01-09T06:37:57.092Z,97254.75
2023-01-09T06:40:23.587Z,97263.16
2023-01-09T06:42:50.360Z,97240.59
2023-01-09T06:45:17.047Z,97274.75
2023-01-09T06:47:43.551Z,97249.50
2023-01-09T06:50:11.112Z,97253.28
2023-01-09T06:52:37.808Z,97246.50
2023-01-09T06:55:04.874Z,97267.53
2023-01-09T06:57:31.514Z,97264.50
2023-01-09T06:59:58.038Z,97243.41
2023-01-09T07:02:24.639Z,97252.59
2023-01-09T07:04:58.564Z,97252.16
2023-01-09T07:07:25.057Z,97261.22
2023-01-09T07:09:52.197Z,97262.25
2023-01-09T07:12:18.750Z,97261.75
2023-01-09T07:14:45.256Z,97245.91
2023-01-09T07:17:13.608Z,97296.13
2023-01-09T07:19:40.256Z,97301.56
2023-01-09T07:22:06.736Z,97306.97
2023-01-09T07:24:33.158Z,97307.69
2023-01-09T07:26:59.641Z,97301.78
2023-01-09T07:29:26.139Z,97304.81
2023-01-09T07:31:56.575Z,97324.22
2023-01-09T07:34:26.198Z,97316.72
2023-01-09T07:36:55.457Z,97329.41
2023-01-09T07:39:24.415Z,97325.94
2023-01-09T07:41:50.927Z,97339.97
2023-01-09T07:44:17.393Z,97343.31
2023-01-09T07:46:43.879Z,97342.09
2023-01-09T07:49:10.414Z,97308.00
2023-01-09T07:51:39.143Z,97320.41
2023-01-09T07:54:05.753Z,97319.69
2023-01-09T07:56:32.254Z,97333.44
2023-01-09T07:58:58.675Z,97324.06
2023-01-09T08:01:25.299Z,97339.81
2023-01-09T08:03:59.040Z,97349.03
2023-01-09T08:06:25.531Z,97307.28
2023-01-09T08:08:53.614Z,97349.63
2023-01-09T08:11:20.148Z,97321.00
2023-01-09T08:13:46.635Z,97336.81
2023-01-09T08:16:13.183Z,97339.81
2023-01-09T08:18:39.674Z,97353.16
2023-01-09T08:21:06.389Z,97345.56
2023-01-09T08:23:32.916Z,97355.25
2023-01-09T08:25:59.787Z,97345.69
2023-01-09T08:28:26.237Z,97363.34
2023-01-09T08:30:56.237Z,97364.97
2023-01-09T08:33:29.091Z,97349.97
2023-01-09T08:35:55.921Z,97356.09
2023-01-09T08:38:24.569Z,97351.44
2023-01-09T08:40:51.025Z,97359.13
2023-01-09T08:43:36.035Z,97368.03
2023-01-09T08:46:34.910Z,97365.25
2023-01-09T08:49:01.460Z,97370.75
2023-01-09T08:51:28.046Z,97349.44
2023-01-09T08:53:54.576Z,97371.72
2023-01-09T08:56:21.055Z,97344.66
2023-01-09T08:58:47.612Z,97379.47
2023-01-09T09:01:14.197Z,97362.16
2023-01-09T09:03:40.724Z,97392.53
2023-01-09T09:06:07.521Z,97368.13
2023-01-09T09:08:36.522Z,97388.66
2023-01-09T09:11:03.093Z,97386.69
2023-01-09T09:13:29.816Z,97393.31
2023-01-09T09:15:56.390Z,97386.72
2023-01-09T09:18:26.413Z,97385.69
2023-01-09T09:20:56.324Z,97392.19
2023-01-09T09:23:25.868Z,97398.91
2023-01-09T09:25:55.132Z,97382.75
2023-01-09T09:28:24.204Z,97385.75
2023-01-09T09:30:51.066Z,97386.56
2023-01-09T09:33:17.990Z,97393.78
2023-01-09T09:35:44.856Z,97402.38
2023-01-09T09:38:13.485Z,97405.72
2023-01-09T09:41:01.902Z,97409.03
2023-01-09T09:43:56.355Z,97420.75
2023-01-09T09:46:41.869Z,97414.34
2023-01-09T09:49:40.349Z,97416.19
2023-01-09T09:52:47.203Z,97402.16
2023-01-09T09:55:37.128Z,97416.50
2023-01-09T09:58:11.511Z,97404.84
2023-01-09T10:00:38.411Z,97415.56
2023-01-09T10:03:16.470Z,97410.16
2023-01-09T10:05:48.904Z,97420.13
2023-01-09T10:08:34.808Z,97423.13
2023-01-09T10:11:01.640Z,97422.88
2023-01-09T10:13:47.117Z,97426.03
2023-01-09T10:16:32.225Z,97437.84
2023-01-09T10:19:04.604Z,97451.88
2023-01-09T10:21:46.514Z,97452.38
2023-01-09T10:24:42.339Z,97463.59
2023-01-09T10:27:21.799Z,97464.19
2023-01-09T10:30:25.632Z,97464.94
2023-01-09T10:33:04.031Z,97457.69
2023-01-09T10:35:47.337Z,97467.19
2023-01-09T10:38:20.357Z,97459.94
2023-01-09T10:41:10.511Z,97427.94
2023-01-09T10:43:44.636Z,97480.56
2023-01-09T10:46:26.128Z,97480.59
2023-01-09T10:48:59.697Z,97466.00
2023-01-09T10:51:35.989Z,97475.13
2023-01-09T10:54:04.992Z,97464.78
2023-01-09T10:56:38.795Z,97444.16
2023-01-09T10:59:05.777Z,97447.78
2023-01-09T11:01:34.783Z,97465.09
2023-01-09T11:04:02.356Z,97446.31
2023-01-09T11:06:46.695Z,97457.69
2023-01-09T11:09:15.080Z,97466.91
2023-01-09T11:11:41.812Z,97468.88
2023-01-09T11:14:28.326Z,97461.44
2023-01-09T11:16:59.678Z,97469.81
2023-01-09T11:19:26.943Z,97471.47
2023-01-09T11:22:16.200Z,97462.56
2023-01-09T11:24:43.120Z,97458.66
2023-01-09T11:27:25.033Z,97467.72
2023-01-09T11:30:20.078Z,97476.00
2023-01-09T11:32:47.797Z,97463.28
2023-01-09T11:35:21.728Z,97474.84
2023-01-09T11:37:56.546Z,97461.50
2023-01-09T11:40:30.624Z,97468.59
2023-01-09T11:43:05.963Z,97468.22
2023-01-09T11:45:35.041Z,97469.88
2023-01-09T11:48:03.874Z,97447.28
2023-01-09T11:50:32.079Z,97477.63
2023-01-09T11:53:12.882Z,97476.13
2023-01-09T11:55:42.868Z,97456.34
2023-01-09T11:58:21.139Z,97469.03
2023-01-09T12:00:55.064Z,97483.38
2023-01-09T12:03:59.078Z,97472.50
2023-01-09T12:06:40.719Z,97476.81
2023-01-09T12:09:10.660Z,97474.16
2023-01-09T12:11:48.100Z,97473.84
2023-01-09T12:14:23.696Z,97476.16
2023-01-09T12:17:03.923Z,97466.44
2023-01-09T12:20:07.049Z,97475.97
2023-01-09T12:22:54.842Z,97477.47
2023-01-09T12:25:44.607Z,97484.03
2023-01-09T12:28:39.670Z,97466.50
2023-01-09T12:31:39.913Z,97474.06
2023-01-09T12:34:37.508Z,97498.88
2023-01-09T12:37:45.412Z,97486.03
2023-01-09T12:40:33.233Z,97480.78
2023-01-09T12:43:16.465Z,97477.41
2023-01-09T12:46:11.038Z,97482.75
2023-01-09T12:49:22.523Z,97475.09
2023-01-09T12:51:55.237Z,97483.59
2023-01-09T12:54:42.857Z,97474.00
2023-01-09T12:57:47.357Z,97467.72
2023-01-09T13:00:35.588Z,97470.44
2023-01-09T13:03:13.204Z,97447.63
2023-01-09T13:05:49.843Z,97464.66
2023-01-09T13:08:30.219Z,97463.75
2023-01-09T13:11:20.017Z,97452.22
2023-01-09T13:13:59.874Z,97460.03
2023-01-09T13:16:41.572Z,97478.19
2023-01-09T13:19:29.094Z,97484.31
2023-01-09T13:21:58.490Z,97478.94
2023-01-09T13:24:31.193Z,97499.63
2023-01-09T13:27:05.441Z,97496.06
2023-01-09T13:29:37.479Z,97502.16
2023-01-09T13:32:21.053Z,97504.41
2023-01-09T13:34:51.724Z,97505.16
2023-01-09T13:37:23.578Z,97509.63
2023-01-09T13:40:06.829Z,97502.97
2023-01-09T13:42:36.734Z,97514.88
2023-01-09T13:45:17.352Z,97523.88
2023-01-09T13:47:44.623Z,97519.06
2023-01-09T13:50:11.092Z,97535.09
2023-01-09T13:52:37.612Z,97532.44
2023-01-09T13:55:16.204Z,97536.03
2023-01-09T13:57:45.632Z,97545.72
2023-01-09T14:00:12.018Z,97551.63
2023-01-09T14:02:40.997Z,97556.78
2023-01-09T14:05:13.330Z,97548.56
2023-01-09T14:07:42.487Z,97529.28
2023-01-09T14:10:35.375Z,97531.31
2023-01-09T14:13:09.005Z,97542.84
2023-01-09T14:15:40.051Z,97481.72
2023-01-09T14:18:15.717Z,97481.78
2023-01-09T14:20:46.656Z,97495.94
2023-01-09T14:23:51.142Z,97542.00
2023-01-09T14:26:42.349Z,97568.38
2023-01-09T14:29:36.410Z,97570.19
2023-01-09T14:32:20.895Z,97571.16
2023-01-09T14:35:20.218Z,97581.44
2023-01-09T14:38:03.911Z,97557.88
2023-01-09T14:40:32.393Z,97578.66
2023-01-09T14:43:12.036Z,97570.81
2023-01-09T14:45:41.292Z,97559.78
2023-01-09T14:48:12.177Z,97610.75
2023-01-09T14:50:51.259Z,97609.81
2023-01-09T14:53:31.380Z,97616.59
2023-01-09T14:56:06.059Z,97580.28
2023-01-09T14:58:34.385Z,97608.97
2023-01-09T15:01:00.848Z,97646.22
2023-01-09T15:03:40.830Z,97637.88
2023-01-09T15:06:15.379Z,97638.03
2023-01-09T15:08:45.180Z,97661.59
2023-01-09T15:11:13.380Z,97672.06
2023-01-09T15:13:47.755Z,97664.97
2023-01-09T15:16:21.559Z,97657.69
2023-01-09T15:19:05.133Z,97670.25
2023-01-09T15:21:32.101Z,97675.34
2023-01-09T15:24:22.933Z,97687.75
2023-01-09T15:26:54.711Z,97700.22
2023-01-09T15:29:21.610Z,97673.28
2023-01-09T15:31:52.964Z,97715.66
2023-01-09T15:34:22.326Z,97716.13
2023-01-09T15:36:50.407Z,97710.94
2023-01-09T15:39:25.367Z,97694.78
2023-01-09T15:42:10.630Z,97729.59
2023-01-09T15:44:40.526Z,97715.31
2023-01-09T15:47:13.121Z,97724.25
2023-01-09T15:49:39.771Z,97722.81
2023-01-09T15:52:11.805Z,97729.16
2023-01-09T15:54:40.011Z,97750.38
2023-01-09T15:57:24.677Z,97760.81
2023-01-09T15:59:52.092Z,97765.63
2023-01-09T16:02:39.699Z,97747.47
2023-01-09T16:05:16.373Z,97773.28
2023-01-09T16:07:50.904Z,97777.97
2023-01-09T16:10:32.401Z,97768.41
2023-01-09T16:13:01.642Z,97792.19
2023-01-09T16:15:34.961Z,97786.72
2023-01-09T16:18:22.632Z,97792.69
2023-01-09T16:20:51.197Z,97787.84
2023-01-09T16:23:32.473Z,97798.41
2023-01-09T16:26:13.992Z,97803.50
2023-01-09T16:28:43.448Z,97796.31
2023-01-09T16:31:29.023Z,97804.22
2023-01-09T16:34:06.870Z,97807.81
2023-01-09T16:36:36.937Z,97811.13
2023-01-09T16:39:04.449Z,97811.72
2023-01-09T16:41:49.968Z,97817.47
2023-01-09T16:44:19.056Z,97824.88
2023-01-09T16:46:45.616Z,97841.09
2023-01-09T16:49:19.181Z,97849.47
2023-01-09T16:51:46.887Z,97857.16
2023-01-09T16:54:14.199Z,97865.78
2023-01-09T16:56:43.009Z,97870.34
2023-01-09T16:59:14.329Z,97877.56
2023-01-09T17:01:41.661Z,97869.41
2023-01-09T17:04:12.018Z,97866.63
2023-01-09T17:06:39.314Z,97881.03
2023-01-09T17:09:06.389Z,97887.97
2023-01-09T17:11:34.925Z,97893.47
2023-01-09T17:14:02.127Z,97881.75
2023-01-09T17:16:29.821Z,97904.13
2023-01-09T17:18:56.681Z,97899.41
2023-01-09T17:24:26.512Z,97882.66
2023-01-09T17:27:11.495Z,97889.72
2023-01-09T17:29:38.039Z,97900.63
2023-01-09T17:32:09.249Z,97894.69
2023-01-09T17:34:35.929Z,97883.66
2023-01-09T17:37:04.367Z,97907.56
2023-01-09T17:39:31.156Z,97914.38
2023-01-09T17:41:58.949Z,97904.38
2023-01-09T17:44:26.421Z,97919.28
2023-01-09T17:46:52.903Z,97922.75
2023-01-09T17:49:21.599Z,97925.78
2023-01-09T17:51:48.735Z,97941.19
2023-01-09T17:54:15.657Z,97938.03
2023-01-09T17:56:46.429Z,97950.00
2023-01-09T17:59:15.183Z,97964.53
2023-01-09T18:01:43.097Z,97965.91
2023-01-09T18:04:10.681Z,97971.41
2023-01-09T18:06:38.609Z,97974.31
2023-01-09T18:09:10.172Z,97941.16
2023-01-09T18:11:49.219Z,97961.88
2023-01-09T18:14:20.768Z,97967.13
2023-01-09T18:16:47.336Z,97959.81
2023-01-09T18:19:13.911Z,97981.06
2023-01-09T18:21:40.429Z,97970.31
2023-01-09T18:24:10.167Z,97968.69
2023-01-09T18:26:39.700Z,98017.41
2023-01-09T18:29:07.388Z,98014.34
2023-01-09T18:31:33.852Z,98026.03
2023-01-09T18:34:07.264Z,98008.97
2023-01-09T18:36:33.904Z,98012.03
2023-01-09T18:39:02.865Z,98030.31
2023-01-09T18:41:30.255Z,98038.22
2023-01-09T18:43:59.438Z,98029.75
2023-01-09T18:46:30.518Z,98039.41
2023-01-09T18:48:59.149Z,98064.63
2023-01-09T18:51:26.724Z,98065.75
2023-01-09T18:53:56.623Z,98078.88
2023-01-09T18:56:24.749Z,98073.06
2023-01-09T18:58:56.551Z,98063.75
2023-01-09T19:01:23.822Z,98061.84
2023-01-09T19:03:51.799Z,98080.06
2023-01-09T19:06:18.346Z,98071.47
2023-01-09T19:08:45.236Z,98086.84
2023-01-09T19:11:11.776Z,98078.63
2023-01-09T19:13:41.345Z,98081.13
2023-01-09T19:16:10.881Z,98090.88
2023-01-09T19:18:42.909Z,98092.56
2023-01-09T19:21:15.078Z,98083.25
2023-01-09T19:23:43.531Z,98097.47
2023-01-09T19:26:20.914Z,98109.13
2023-01-09T19:28:48.106Z,98110.59
2023-01-09T19:31:15.183Z,98115.34
2023-01-09T19:33:44.583Z,98125.94
2023-01-09T19:36:11.542Z,98137.13
2023-01-09T19:38:41.005Z,98115.75
2023-01-09T19:41:18.310Z,98134.59
2023-01-09T19:43:45.794Z,98137.22
2023-01-09T19:46:17.058Z,98139.38
2023-01-09T19:48:43.557Z,98150.47
2023-01-09T19:51:11.347Z,98146.13
2023-01-09T19:53:39.362Z,98130.44
2023-01-09T19:56:28.406Z,98167.38
2023-01-09T19:59:00.023Z,98184.41
2023-01-09T20:01:32.606Z,98180.16
2023-01-09T20:04:09.210Z,98181.75
2023-01-09T20:06:39.594Z,98177.72
2023-01-09T20:09:10.947Z,98175.53
2023-01-09T20:11:41.304Z,98164.94
2023-01-09T20:14:11.620Z,98184.50
2023-01-09T20:16:43.000Z,98182.72
2023-01-09T20:19:13.167Z,98186.44
2023-01-09T20:21:39.903Z,98172.59
2023-01-09T20:24:09.750Z,98201.16
2023-01-09T20:26:39.235Z,98208.69
2023-01-09T20:29:05.744Z,98212.34
2023-01-09T20:31:32.996Z,98205.56
2023-01-09T20:34:00.281Z,98193.28
2023-01-09T20:36:30.921Z,98212.69
2023-01-09T20:39:03.291Z,98219.22
2023-01-09T20:41:31.261Z,98232.31
2023-01-09T20:44:04.941Z,98248.72
2023-01-09T20:46:43.489Z,98259.22
2023-01-09T20:49:12.319Z,98233.41
2023-01-09T20:51:47.355Z,98229.31
2023-01-09T20:54:14.924Z,98269.16
2023-01-09T20:56:41.978Z,98262.97
2023-01-09T20:59:14.250Z,98255.63
2023-01-09T21:01:40.796Z,98279.84
2023-01-09T21:04:10.019Z,98254.31
2023-01-09T21:06:36.617Z,98279.03
2023-01-09T21:09:04.895Z,98289.91
2023-01-09T21:11:31.498Z,98264.41
2023-01-09T21:13:57.962Z,98289.94
2023-01-09T21:16:25.060Z,98308.16
2023-01-09T21:18:53.754Z,98295.91
2023-01-09T21:21:23.437Z,98308.59
2023-01-09T21:23:54.508Z,98321.63
2023-01-09T21:26:24.433Z,98332.38
2023-01-09T21:28:54.990Z,98333.56
2023-01-09T21:31:34.016Z,98340.09
2023-01-09T21:34:03.781Z,98311.75
2023-01-09T21:36:30.704Z,98321.41
2023-01-09T21:38:58.619Z,98333.69
2023-01-09T21:41:45.491Z,98342.13
2023-01-09T21:44:33.519Z,98344.75
2023-01-09T21:47:01.474Z,98357.28
2023-01-09T21:49:31.111Z,98363.13
2023-01-09T21:51:57.971Z,98360.97
2023-01-09T21:54:24.757Z,98366.91
2023-01-09T21:56:54.669Z,98376.81
2023-01-09T21:59:21.156Z,98368.94
2023-01-09T22:01:49.159Z,98381.72
2023-01-09T22:04:17.689Z,98386.63
2023-01-09T22:06:44.685Z,98375.88
2023-01-09T22:09:14.946Z,98368.50
2023-01-09T22:11:44.938Z,98372.44
2023-01-09T22:14:17.414Z,98386.88
2023-01-09T22:16:47.680Z,98362.28
2023-01-09T22:19:17.351Z,98380.06
2023-01-09T22:21:44.147Z,98376.41
2023-01-09T22:24:16.257Z,98386.88
2023-01-09T22:26:44.159Z,98412.63
2023-01-09T22:29:13.854Z,98406.69
2023-01-09T22:31:42.903Z,98395.94
2023-01-09T22:34:15.088Z,98409.56
2023-01-09T22:36:46.039Z,98418.72
2023-01-09T22:39:16.089Z,98423.25
2023-01-09T22:41:49.781Z,98402.16
2023-01-09T22:44:16.278Z,98427.06
2023-01-09T22:46:45.864Z,98424.78
2023-01-09T22:49:14.666Z,98446.00
2023-01-09T22:51:41.134Z,98420.13
2023-01-09T22:54:08.590Z,98425.13
2023-01-09T22:56:35.195Z,98441.81
2023-01-09T22:59:01.700Z,98467.94
2023-01-09T23:01:29.136Z,98469.72
2023-01-09T23:03:55.692Z,98470.09
2023-01-09T23:06:23.581Z,98480.47
2023-01-09T23:08:51.078Z,98478.31
2023-01-09T23:11:46.028Z,98483.31
2023-01-09T23:14:13.467Z,98476.78
2023-01-09T23:16:40.428Z,98487.31
2023-01-09T23:19:08.954Z,98493.16
2023-01-09T23:21:36.104Z,98476.22
2023-01-09T23:24:02.577Z,98485.63
2023-01-09T23:26:29.097Z,98486.00
2023-01-09T23:28:55.532Z,98488.38
2023-01-09T23:31:22.064Z,98500.31
2023-01-09T23:33:48.571Z,98490.66
2023-01-09T23:36:17.963Z,98477.66
2023-01-09T23:38:45.508Z,98491.13
2023-01-09T23:41:11.988Z,98484.78
2023-01-09T23:43:38.467Z,98506.03
2023-01-09T23:46:05.078Z,98493.50
2023-01-09T23:48:31.616Z,98507.94
2023-01-09T23:50:58.119Z,98510.22
2023-01-09T23:53:24.757Z,98510.59
2023-01-09T23:55:54.956Z,98509.63
2023-01-09T23:58:21.751Z,98518.19
